Time;durP1;ratioP1;P1;durP2;ratioP2;P2;SDS_P1;SDS_P2;PMS_P1;PMS_P2;Temp;Humidity;BMP_temperature;BMP_pressure;BME280_temperature;BME280_humidity;BME280_pressure;Samples;Min_cycle;Max_cycle;Signal;HPM_P1;HPM_P2
2024/01/18 00:01:32;;;;;;;0.80;0.50;;;9.80;99.90;;;;;;5111341;27;20185;-73
2024/01/18 00:03:59;;;;;;;2.17;0.73;;;9.80;99.90;;;;;;5129827;27;20422;-73
2024/01/18 00:06:25;;;;;;;0.90;0.50;;;9.70;99.90;;;;;;5129452;27;20322;-72
2024/01/18 00:08:50;;;;;;;1.10;0.60;;;9.70;99.90;;;;;;5129868;27;20434;-72
2024/01/18 00:11:16;;;;;;;0.70;0.40;;;9.70;99.90;;;;;;5111513;27;20591;-72
2024/01/18 00:13:43;;;;;;;1.00;0.70;;;9.80;99.90;;;;;;5129729;27;20204;-72
2024/01/18 00:16:09;;;;;;;0.90;0.73;;;9.60;99.90;;;;;;5111341;28;20472;-72
2024/01/18 00:18:34;;;;;;;0.90;0.70;;;9.70;99.90;;;;;;5111502;28;20438;-73
2024/01/18 00:21:00;;;;;;;1.67;0.53;;;9.80;99.90;;;;;;5129851;27;20252;-72
2024/01/18 00:23:26;;;;;;;0.80;0.60;;;9.80;99.90;;;;;;5129967;27;20176;-73
2024/01/18 00:25:52;;;;;;;1.10;0.57;;;9.70;99.90;;;;;;5130127;27;20178;-73
2024/01/18 00:28:17;;;;;;;2.07;0.50;;;9.80;99.90;;;;;;5129690;28;20219;-73
2024/01/18 00:30:43;;;;;;;0.70;0.43;;;9.80;99.90;;;;;;5111891;28;20461;-73
2024/01/18 00:33:09;;;;;;;0.90;0.47;;;9.90;99.90;;;;;;5111735;28;20671;-73
2024/01/18 00:35:35;;;;;;;0.90;0.70;;;9.80;99.90;;;;;;5111490;28;20185;-72
2024/01/18 00:38:01;;;;;;;1.33;0.50;;;9.80;99.90;;;;;;5129784;28;20470;-72
2024/01/18 00:40:27;;;;;;;0.80;0.60;;;9.80;99.90;;;;;;5111546;28;20234;-72
2024/01/18 00:42:53;;;;;;;0.80;0.57;;;9.80;99.90;;;;;;5129971;28;20449;-72
2024/01/18 00:45:19;;;;;;;0.97;0.70;;;9.80;99.90;;;;;;5129876;28;20266;-72
2024/01/18 00:47:44;;;;;;;2.33;0.60;;;9.80;99.90;;;;;;5111533;28;20283;-72
2024/01/18 00:50:10;;;;;;;3.13;0.60;;;9.80;99.90;;;;;;5094941;28;20185;-72
2024/01/18 00:52:35;;;;;;;1.03;0.60;;;9.80;99.90;;;;;;5130272;28;20648;-73
2024/01/18 00:55:01;;;;;;;2.10;0.50;;;9.70;99.90;;;;;;5111983;28;20973;-73
2024/01/18 00:57:28;;;;;;;1.67;0.53;;;9.70;99.90;;;;;;5111910;28;20260;-73
2024/01/18 00:59:54;;;;;;;0.70;0.40;;;9.70;99.90;;;;;;5130371;28;20665;-73
2024/01/18 01:02:20;;;;;;;0.80;0.70;;;9.60;99.90;;;;;;5130368;28;20453;-73
2024/01/18 01:04:46;;;;;;;0.93;0.70;;;9.60;99.90;;;;;;5111946;28;20190;-73
2024/01/18 01:07:11;;;;;;;1.40;0.40;;;9.60;99.90;;;;;;5130337;28;20462;-73
2024/01/18 01:09:37;;;;;;;1.33;0.60;;;9.80;99.90;;;;;;5130076;28;20258;-73
2024/01/18 01:12:03;;;;;;;1.30;0.50;;;9.80;99.90;;;;;;5130322;28;20176;-73
2024/01/18 01:14:28;;;;;;;0.70;0.43;;;9.90;99.90;;;;;;5129838;28;20189;-74
2024/01/18 01:16:54;;;;;;;0.93;0.60;;;9.90;99.90;;;;;;5129780;27;20424;-72
2024/01/18 01:19:19;;;;;;;0.90;0.50;;;9.90;99.90;;;;;;5098045;27;20279;-73
2024/01/18 01:21:45;;;;;;;0.70;0.60;;;9.90;99.90;;;;;;5098045;27;20186;-73
2024/01/18 01:24:11;;;;;;;0.93;0.60;;;9.90;99.90;;;;;;5097939;27;20188;-73
2024/01/18 01:26:37;;;;;;;0.90;0.57;;;9.90;99.90;;;;;;5133273;27;20293;-73
2024/01/18 01:29:03;;;;;;;1.57;0.87;;;9.90;99.90;;;;;;5097734;27;20217;-73
2024/01/18 01:31:29;;;;;;;3.30;0.47;;;9.80;99.90;;;;;;5098112;27;20505;-73
2024/01/18 01:33:54;;;;;;;0.80;0.50;;;9.80;99.90;;;;;;5114864;27;20989;-73
2024/01/18 01:36:20;;;;;;;1.03;0.50;;;9.80;99.90;;;;;;5133347;27;20197;-73
2024/01/18 01:38:45;;;;;;;0.70;0.50;;;9.80;99.90;;;;;;5114908;27;20699;-72
2024/01/18 01:41:11;;;;;;;1.47;0.60;;;9.80;99.90;;;;;;5114826;27;20185;-73
2024/01/18 01:43:37;;;;;;;1.00;0.50;;;9.80;99.90;;;;;;5114691;27;20186;-73
2024/01/18 01:46:02;;;;;;;1.13;0.50;;;10.00;99.90;;;;;;5133143;27;20668;-73
2024/01/18 01:48:29;;;;;;;0.80;0.57;;;9.80;99.90;;;;;;5114570;27;20837;-73
2024/01/18 01:50:55;;;;;;;0.83;0.47;;;9.80;99.90;;;;;;5114067;27;20188;-72
2024/01/18 01:53:21;;;;;;;1.00;0.50;;;9.90;99.90;;;;;;5113754;27;20872;-72
2024/01/18 01:55:46;;;;;;;1.30;0.60;;;9.80;99.90;;;;;;5113716;27;20627;-72
2024/01/18 01:58:15;;;;;;;1.57;0.50;;;9.80;99.90;;;;;;5132100;27;20963;-72
2024/01/18 02:00:41;;;;;;;1.07;0.50;;;9.90;99.90;;;;;;5132366;27;20173;-72
2024/01/18 02:03:08;;;;;;;1.00;0.43;;;9.90;99.90;;;;;;5113575;27;20435;-73
2024/01/18 02:05:34;;;;;;;0.87;0.50;;;9.90;99.90;;;;;;5131899;27;20445;-73
2024/01/18 02:07:59;;;;;;;1.10;0.57;;;9.90;99.90;;;;;;5131718;27;21001;-72
2024/01/18 02:10:26;;;;;;;1.17;0.60;;;9.90;99.90;;;;;;5132138;27;20411;-72
2024/01/18 02:12:52;;;;;;;1.30;0.50;;;9.80;99.90;;;;;;5131790;27;20171;-72
2024/01/18 02:15:21;;;;;;;0.80;0.50;;;9.70;99.90;;;;;;5113254;27;20483;-73
2024/01/18 02:17:47;;;;;;;1.00;0.50;;;9.60;99.90;;;;;;5131851;27;20610;-72
2024/01/18 02:20:12;;;;;;;1.20;0.60;;;9.80;99.90;;;;;;5131842;27;20957;-73
2024/01/18 02:22:43;;;;;;;0.80;0.40;;;9.70;99.90;;;;;;5112996;27;20196;-73
2024/01/18 02:25:27;;;;;;;0.83;0.50;;;9.80;99.90;;;;;;5131804;27;20184;-72
2024/01/18 02:27:55;;;;;;;1.77;0.43;;;9.80;99.90;;;;;;5131294;27;21012;-72
2024/01/18 02:30:20;;;;;;;0.77;0.53;;;9.80;99.90;;;;;;5131668;27;20917;-72
2024/01/18 02:32:46;;;;;;;2.50;0.70;;;9.90;99.90;;;;;;5131690;27;20452;-72
2024/01/18 02:35:12;;;;;;;0.83;0.50;;;9.90;99.90;;;;;;5131506;27;20553;-73
2024/01/18 02:37:38;;;;;;;2.00;0.80;;;9.90;99.90;;;;;;5131330;27;20218;-72
2024/01/18 02:40:05;;;;;;;1.10;0.40;;;9.80;99.90;;;;;;5112977;27;20301;-72
2024/01/18 02:42:31;;;;;;;0.80;0.50;;;9.80;99.90;;;;;;5131325;27;20458;-73
2024/01/18 02:44:57;;;;;;;0.70;0.50;;;9.90;99.90;;;;;;5131439;27;20442;-72
2024/01/18 02:47:27;;;;;;;2.20;0.60;;;9.80;99.90;;;;;;5130851;27;20258;-73
2024/01/18 02:49:54;;;;;;;0.80;0.40;;;9.80;99.90;;;;;;5131373;27;20942;-73
2024/01/18 02:52:20;;;;;;;2.20;0.60;;;10.00;99.90;;;;;;5131212;27;20990;-73
2024/01/18 02:54:46;;;;;;;1.37;0.50;;;9.90;99.90;;;;;;5131487;27;20517;-73
2024/01/18 02:57:11;;;;;;;1.00;0.50;;;9.80;99.90;;;;;;5112558;27;20186;-73
2024/01/18 02:59:37;;;;;;;3.37;0.50;;;9.70;99.90;;;;;;5130769;27;20259;-73
2024/01/18 03:02:02;;;;;;;0.70;0.40;;;9.70;99.90;;;;;;5095435;27;20189;-73
2024/01/18 03:04:28;;;;;;;1.97;0.53;;;9.70;99.90;;;;;;5130855;27;20200;-73
2024/01/18 03:06:54;;;;;;;1.63;0.80;;;9.70;99.90;;;;;;5095223;27;20236;-73
2024/01/18 03:09:19;;;;;;;0.90;0.60;;;9.80;99.90;;;;;;5130563;27;20205;-73
2024/01/18 03:11:45;;;;;;;1.13;0.60;;;9.70;99.90;;;;;;5112216;27;20192;-73
2024/01/18 03:14:11;;;;;;;0.77;0.53;;;9.70;99.90;;;;;;5130512;27;20175;-73
2024/01/18 03:16:42;;;;;;;1.00;0.63;;;9.60;99.90;;;;;;5095236;27;20825;-73
2024/01/18 03:19:11;;;;;;;1.47;0.53;;;9.60;99.90;;;;;;5130910;27;20522;-73
2024/01/18 03:21:37;;;;;;;0.80;0.40;;;9.60;99.90;;;;;;5130930;27;20492;-73
2024/01/18 03:24:02;;;;;;;1.43;0.53;;;9.60;99.90;;;;;;5130912;27;20410;-73
2024/01/18 03:26:28;;;;;;;1.10;0.50;;;9.60;99.90;;;;;;5130812;27;20626;-73
2024/01/18 03:28:54;;;;;;;1.37;0.60;;;9.60;99.90;;;;;;5130409;27;20240;-73
2024/01/18 03:31:20;;;;;;;0.83;0.53;;;9.60;99.90;;;;;;5130863;27;20270;-74
2024/01/18 03:33:46;;;;;;;0.77;0.53;;;9.60;99.90;;;;;;5130873;27;20423;-73
2024/01/18 03:36:11;;;;;;;2.20;0.77;;;9.50;99.90;;;;;;5112294;27;20193;-72
2024/01/18 03:38:37;;;;;;;0.97;0.60;;;9.40;99.90;;;;;;5095099;27;20232;-73
2024/01/18 03:41:03;;;;;;;3.43;0.80;;;9.50;99.90;;;;;;5111633;27;20644;-72
2024/01/18 03:43:28;;;;;;;1.10;0.60;;;9.40;99.90;;;;;;5130643;27;20668;-73
2024/01/18 03:45:54;;;;;;;1.10;0.50;;;9.50;99.90;;;;;;5112133;27;20425;-73
2024/01/18 03:48:20;;;;;;;1.93;0.80;;;9.40;99.90;;;;;;5095155;27;20295;-73
2024/01/18 03:50:45;;;;;;;0.90;0.50;;;9.40;99.90;;;;;;5130421;27;20173;-73
2024/01/18 03:53:11;;;;;;;1.10;0.70;;;9.40;99.90;;;;;;5111995;27;20177;-73
2024/01/18 03:55:37;;;;;;;0.80;0.50;;;9.60;99.90;;;;;;5111873;27;20180;-73
2024/01/18 03:58:03;;;;;;;1.43;0.50;;;9.70;99.90;;;;;;5111755;27;20438;-72
2024/01/18 04:00:29;;;;;;;1.20;0.87;;;9.50;99.90;;;;;;5111411;27;20457;-72
2024/01/18 04:02:55;;;;;;;1.30;0.60;;;9.50;99.90;;;;;;5130035;27;20451;-72
2024/01/18 04:05:20;;;;;;;2.00;0.60;;;9.50;99.90;;;;;;5130123;27;20205;-73
2024/01/18 04:07:46;;;;;;;1.20;0.70;;;9.60;99.90;;;;;;5129759;27;20609;-72
2024/01/18 04:10:11;;;;;;;2.00;0.50;;;9.60;99.90;;;;;;5129965;27;20186;-73
2024/01/18 04:12:38;;;;;;;1.53;0.60;;;9.50;99.90;;;;;;5129878;27;20188;-73
2024/01/18 04:15:04;;;;;;;1.33;0.60;;;9.60;99.90;;;;;;5129893;27;20173;-73
2024/01/18 04:17:29;;;;;;;1.37;0.73;;;9.50;99.90;;;;;;5111263;27;20517;-73
2024/01/18 04:19:55;;;;;;;1.83;0.90;;;9.50;99.90;;;;;;5129977;27;20559;-73
2024/01/18 04:22:23;;;;;;;1.50;0.60;;;9.50;99.90;;;;;;5111443;27;20234;-73
2024/01/18 04:24:48;;;;;;;0.90;0.50;;;9.50;99.90;;;;;;5129972;27;20173;-73
2024/01/18 04:27:14;;;;;;;1.37;0.50;;;9.60;99.90;;;;;;5129709;27;20465;-73
2024/01/18 04:29:41;;;;;;;0.80;0.50;;;9.50;99.90;;;;;;5129603;28;20430;-73
2024/01/18 04:32:07;;;;;;;0.80;0.60;;;9.60;99.90;;;;;;5111731;28;20177;-73
2024/01/18 04:34:33;;;;;;;0.70;0.50;;;9.50;99.90;;;;;;5111341;28;20426;-72
2024/01/18 04:36:59;;;;;;;3.73;0.80;;;9.40;99.90;;;;;;5111391;28;20430;-72
2024/01/18 04:39:24;;;;;;;0.90;0.50;;;9.40;99.90;;;;;;5111072;28;20201;-73
2024/01/18 04:41:50;;;;;;;2.07;0.50;;;9.30;99.90;;;;;;5129776;28;20181;-72
2024/01/18 04:44:16;;;;;;;0.80;0.60;;;9.30;99.90;;;;;;5111420;28;20189;-72
2024/01/18 04:46:41;;;;;;;3.37;0.97;;;9.30;99.90;;;;;;5111222;28;20212;-72
2024/01/18 04:49:07;;;;;;;0.70;0.50;;;9.30;99.90;;;;;;5111452;28;20205;-72
2024/01/18 04:51:33;;;;;;;1.40;0.43;;;9.20;99.90;;;;;;5111458;28;20197;-72
2024/01/18 04:53:59;;;;;;;0.93;0.40;;;9.30;99.90;;;;;;5133284;27;20181;-74
2024/01/18 04:56:24;;;;;;;1.30;0.50;;;9.20;99.90;;;;;;5133961;27;20177;-74
2024/01/18 04:58:50;;;;;;;4.63;0.67;;;9.20;99.90;;;;;;5115176;27;20204;-73
2024/01/18 05:01:17;;;;;;;1.90;0.83;;;9.20;99.90;;;;;;5115294;27;20276;-73
2024/01/18 05:03:43;;;;;;;2.17;0.53;;;9.30;99.90;;;;;;5115636;27;20173;-73
2024/01/18 05:06:09;;;;;;;3.53;0.97;;;9.30;99.90;;;;;;5133411;27;21022;-73
2024/01/18 05:08:34;;;;;;;2.20;0.60;;;9.20;99.90;;;;;;5132180;27;20209;-74
2024/01/18 05:11:00;;;;;;;1.00;0.80;;;9.30;99.90;;;;;;5113290;27;20793;-73
2024/01/18 05:13:26;;;;;;;0.87;0.57;;;9.30;99.90;;;;;;5113439;27;20293;-74
2024/01/18 05:15:52;;;;;;;1.53;0.50;;;9.30;99.90;;;;;;5112913;27;20726;-74
2024/01/18 05:18:18;;;;;;;2.43;0.53;;;9.20;99.90;;;;;;5131631;27;20438;-74
2024/01/18 05:20:44;;;;;;;0.70;0.50;;;9.20;99.90;;;;;;5131882;27;20192;-74
2024/01/18 05:23:10;;;;;;;0.80;0.60;;;9.10;99.90;;;;;;5113077;27;20414;-74
2024/01/18 05:25:35;;;;;;;1.13;0.50;;;9.10;99.90;;;;;;5113308;27;20285;-74
2024/01/18 05:28:01;;;;;;;2.30;0.50;;;9.10;99.90;;;;;;5113459;27;20293;-74
2024/01/18 05:30:26;;;;;;;0.80;0.50;;;9.10;99.90;;;;;;5132310;27;20660;-73
2024/01/18 05:32:52;;;;;;;0.80;0.50;;;9.10;99.90;;;;;;5132262;27;20208;-74
2024/01/18 05:35:18;;;;;;;1.00;0.60;;;9.10;99.90;;;;;;5113714;27;20181;-74
2024/01/18 05:37:44;;;;;;;0.80;0.53;;;9.10;99.90;;;;;;5131903;27;21020;-74
2024/01/18 05:40:10;;;;;;;0.80;0.50;;;9.10;99.90;;;;;;5113943;27;20483;-74
2024/01/18 05:42:36;;;;;;;0.80;0.50;;;9.00;99.90;;;;;;5132269;27;20197;-74
2024/01/18 05:45:01;;;;;;;0.70;0.50;;;9.00;99.90;;;;;;5131759;27;20849;-74
2024/01/18 05:47:27;;;;;;;0.70;0.50;;;9.00;99.90;;;;;;5113074;27;21060;-75
2024/01/18 05:49:52;;;;;;;0.90;0.50;;;9.00;99.90;;;;;;5131354;27;20177;-74
2024/01/18 05:52:18;;;;;;;0.77;0.50;;;8.90;99.90;;;;;;5131157;27;20181;-75
2024/01/18 05:54:44;;;;;;;0.70;0.50;;;8.90;99.90;;;;;;5131198;27;20201;-74
2024/01/18 05:57:09;;;;;;;4.40;0.77;;;9.00;99.90;;;;;;5131105;27;20177;-75
2024/01/18 05:59:35;;;;;;;1.70;0.50;;;9.00;99.90;;;;;;5112640;27;20438;-74
2024/01/18 06:02:01;;;;;;;0.93;0.50;;;9.00;99.90;;;;;;5130966;27;20188;-75
2024/01/18 06:04:27;;;;;;;0.70;0.40;;;9.10;99.90;;;;;;5130557;27;20189;-75
2024/01/18 06:06:53;;;;;;;0.70;0.60;;;9.00;99.90;;;;;;5112626;27;20211;-74
2024/01/18 06:09:18;;;;;;;1.60;0.47;;;8.90;99.90;;;;;;5112775;27;20442;-75
2024/01/18 06:11:45;;;;;;;0.70;0.40;;;8.90;99.90;;;;;;5130948;27;20177;-74
2024/01/18 06:14:11;;;;;;;1.00;0.50;;;9.00;99.90;;;;;;5130958;27;20412;-75
2024/01/18 06:16:38;;;;;;;1.57;0.50;;;9.00;99.90;;;;;;5112256;27;20419;-75
2024/01/18 06:19:04;;;;;;;0.70;0.50;;;9.00;99.90;;;;;;5130909;27;20525;-74
2024/01/18 06:21:29;;;;;;;0.77;0.47;;;9.00;99.90;;;;;;5112522;27;20510;-75
2024/01/18 06:23:55;;;;;;;0.70;0.40;;;9.00;99.90;;;;;;5112495;27;20521;-75
2024/01/18 06:26:20;;;;;;;0.70;0.50;;;9.00;99.90;;;;;;5112281;27;20257;-75
2024/01/18 06:28:46;;;;;;;0.70;0.40;;;8.90;99.90;;;;;;5130752;27;20610;-74
2024/01/18 06:31:13;;;;;;;0.83;0.50;;;8.90;99.90;;;;;;5130628;27;20182;-75
2024/01/18 06:33:39;;;;;;;1.00;0.57;;;8.90;99.90;;;;;;5130745;27;20249;-73
2024/01/18 06:36:07;;;;;;;4.20;0.73;;;9.00;99.90;;;;;;5130463;27;20906;-73
2024/01/18 06:38:32;;;;;;;0.70;0.40;;;8.90;99.90;;;;;;5111615;27;20205;-75
2024/01/18 06:40:59;;;;;;;0.70;0.40;;;8.90;99.90;;;;;;5130305;27;20681;-74
2024/01/18 06:43:25;;;;;;;1.80;0.47;;;8.90;99.90;;;;;;5112266;27;20617;-74
2024/01/18 06:45:55;;;;;;;1.83;0.40;;;8.90;99.90;;;;;;5130200;27;20419;-75
2024/01/18 06:48:24;;;;;;;0.80;0.37;;;8.90;99.90;;;;;;5129889;27;20548;-75
2024/01/18 06:50:53;;;;;;;1.13;0.40;;;8.90;99.90;;;;;;5130102;27;20498;-75
2024/01/18 06:53:19;;;;;;;0.70;0.60;;;8.90;99.90;;;;;;5130070;27;20510;-75
2024/01/18 06:55:44;;;;;;;5.27;0.47;;;8.90;99.90;;;;;;5130068;27;21086;-75
2024/01/18 06:58:10;;;;;;;0.80;0.50;;;9.10;99.90;;;;;;5129922;27;20211;-75
2024/01/18 07:00:35;;;;;;;0.60;0.30;;;9.00;99.90;;;;;;5129606;27;20177;-74
2024/01/18 07:03:01;;;;;;;1.20;0.53;;;9.00;99.90;;;;;;5111234;27;20776;-75
2024/01/18 07:05:27;;;;;;;0.70;0.40;;;9.00;99.90;;;;;;5129682;27;20223;-75
2024/01/18 07:07:53;;;;;;;0.70;0.40;;;9.10;99.90;;;;;;5129460;27;20209;-75
2024/01/18 07:10:20;;;;;;;0.70;0.40;;;9.10;99.90;;;;;;5129549;27;21288;-75
2024/01/18 07:12:46;;;;;;;0.80;0.50;;;9.10;99.90;;;;;;5110848;27;20189;-74
2024/01/18 07:15:12;;;;;;;0.70;0.50;;;9.00;99.90;;;;;;5110046;27;20411;-75
2024/01/18 07:17:37;;;;;;;0.80;0.50;;;9.00;99.90;;;;;;5129193;27;20186;-75
2024/01/18 07:20:04;;;;;;;1.90;0.87;;;9.10;99.90;;;;;;5129185;27;20612;-75
2024/01/18 07:22:30;;;;;;;0.80;0.50;;;9.00;99.90;;;;;;5111050;27;20177;-75
2024/01/18 07:24:55;;;;;;;2.17;0.50;;;9.00;99.90;;;;;;5110746;27;20774;-74
2024/01/18 07:27:21;;;;;;;1.27;0.50;;;9.00;99.90;;;;;;5129597;27;20854;-75
2024/01/18 07:29:49;;;;;;;0.73;0.50;;;9.00;99.90;;;;;;5111033;27;20616;-74
2024/01/18 07:32:18;;;;;;;2.00;0.40;;;8.90;99.90;;;;;;5129636;27;20258;-74
2024/01/18 07:34:44;;;;;;;0.70;0.40;;;8.90;99.90;;;;;;5129611;27;20448;-75
2024/01/18 07:37:13;;;;;;;0.70;0.40;;;8.90;99.90;;;;;;5128932;27;20446;-75
2024/01/18 07:39:39;;;;;;;0.70;0.40;;;8.90;99.90;;;;;;5110515;27;20458;-75
2024/01/18 07:42:05;;;;;;;1.77;0.43;;;8.90;99.90;;;;;;5129493;27;20415;-74
2024/01/18 07:44:31;;;;;;;0.70;0.40;;;8.80;99.90;;;;;;5110933;27;20419;-75
2024/01/18 07:46:56;;;;;;;0.90;0.40;;;8.80;99.90;;;;;;5093611;27;20486;-75
2024/01/18 07:49:22;;;;;;;2.10;0.60;;;8.80;99.90;;;;;;5129078;27;20228;-75
2024/01/18 07:51:49;;;;;;;0.80;0.40;;;8.80;99.90;;;;;;5110682;27;20348;-75
2024/01/18 07:54:15;;;;;;;0.70;0.40;;;8.80;99.90;;;;;;5110444;27;20173;-75
2024/01/18 07:56:41;;;;;;;1.10;0.40;;;8.80;99.90;;;;;;5128639;27;20429;-75
2024/01/18 07:59:07;;;;;;;1.67;0.40;;;8.90;99.90;;;;;;5128413;27;20249;-75
2024/01/18 08:01:32;;;;;;;0.70;0.40;;;8.90;99.90;;;;;;5128931;27;20410;-75
2024/01/18 08:03:59;;;;;;;0.80;0.50;;;8.90;99.90;;;;;;5092997;27;20219;-75
2024/01/18 08:06:25;;;;;;;1.63;0.40;;;8.90;99.90;;;;;;5092867;27;20712;-74
2024/01/18 08:08:50;;;;;;;0.80;0.40;;;8.90;99.90;;;;;;5109527;27;20517;-74
2024/01/18 08:11:16;;;;;;;0.70;0.40;;;8.90;99.90;;;;;;5128550;27;20238;-74
2024/01/18 08:13:41;;;;;;;0.70;0.40;;;9.00;99.90;;;;;;5109844;27;20200;-75
2024/01/18 08:16:08;;;;;;;0.70;0.40;;;9.00;99.90;;;;;;5128200;27;20285;-74
2024/01/18 08:18:35;;;;;;;0.70;0.40;;;9.00;99.90;;;;;;5109459;27;20200;-75
2024/01/18 08:21:01;;;;;;;0.70;0.40;;;9.10;99.90;;;;;;5109738;28;20800;-75
2024/01/18 08:23:26;;;;;;;0.80;0.40;;;9.10;99.90;;;;;;5128388;27;20418;-75
2024/01/18 08:25:52;;;;;;;0.87;0.40;;;9.20;99.90;;;;;;5128566;27;20422;-75
2024/01/18 08:28:18;;;;;;;0.70;0.50;;;9.20;99.90;;;;;;5128493;27;20221;-75
2024/01/18 08:30:44;;;;;;;1.10;0.80;;;9.20;99.90;;;;;;5128627;28;20177;-75
2024/01/18 08:33:10;;;;;;;1.10;0.80;;;9.30;99.90;;;;;;5128496;28;20416;-74
2024/01/18 08:35:36;;;;;;;0.70;0.40;;;9.30;99.90;;;;;;5110245;28;20534;-74
2024/01/18 08:38:01;;;;;;;0.80;0.43;;;9.40;99.90;;;;;;5109909;28;20454;-75
2024/01/18 08:40:27;;;;;;;1.50;1.17;;;9.40;99.90;;;;;;5128311;28;20653;-75
2024/01/18 08:42:52;;;;;;;3.50;1.20;;;9.30;99.90;;;;;;5109569;28;20272;-74
2024/01/18 08:45:18;;;;;;;3.60;2.50;;;9.30;99.90;;;;;;5128053;28;20186;-74
2024/01/18 08:47:44;;;;;;;3.37;3.07;;;9.20;99.90;;;;;;5092317;28;20217;-74
2024/01/18 08:50:10;;;;;;;4.27;3.80;;;8.80;99.90;;;;;;5127966;28;20283;-75
2024/01/18 08:52:36;;;;;;;4.40;4.00;;;8.60;99.90;;;;;;5109268;28;20878;-75
2024/01/18 08:55:02;;;;;;;5.10;4.60;;;8.30;99.90;;;;;;5127813;28;20181;-74
2024/01/18 08:57:29;;;;;;;6.37;5.57;;;8.00;99.90;;;;;;5109454;28;20438;-74
2024/01/18 08:59:55;;;;;;;6.00;5.30;;;7.50;99.90;;;;;;5127959;28;20418;-74
2024/01/18 09:02:21;;;;;;;6.83;5.40;;;7.30;99.90;;;;;;5109319;28;20422;-74
2024/01/18 09:04:46;;;;;;;5.90;5.30;;;7.20;99.90;;;;;;5127841;28;20189;-75
2024/01/18 09:07:12;;;;;;;10.53;5.57;;;7.20;99.90;;;;;;5109252;28;20217;-74
2024/01/18 09:09:38;;;;;;;11.50;5.37;;;7.10;99.90;;;;;;5109539;28;20225;-74
2024/01/18 09:12:03;;;;;;;10.70;5.90;;;6.80;99.90;;;;;;5129278;28;20679;-74
2024/01/18 09:14:29;;;;;;;18.53;12.33;;;6.70;99.90;;;;;;5092512;28;20181;-74
2024/01/18 09:16:55;;;;;;;13.97;8.90;;;6.60;99.90;;;;;;5127673;28;20422;-74
2024/01/18 09:19:20;;;;;;;7.00;6.30;;;6.60;99.90;;;;;;5127554;28;20216;-74
2024/01/18 09:21:46;;;;;;;7.43;5.40;;;6.50;99.90;;;;;;5127623;28;20555;-74
2024/01/18 09:24:13;;;;;;;10.20;7.80;;;6.40;99.90;;;;;;5109363;28;20173;-74
2024/01/18 09:26:39;;;;;;;9.93;7.07;;;6.20;99.90;;;;;;5109277;28;20411;-74
2024/01/18 09:29:04;;;;;;;24.83;8.60;;;6.10;99.90;;;;;;5109241;28;20582;-74
2024/01/18 09:31:30;;;;;;;40.83;8.83;;;6.00;99.90;;;;;;5127788;28;20494;-74
2024/01/18 09:33:55;;;;;;;32.10;14.27;;;5.90;99.90;;;;;;5127774;28;20185;-75
2024/01/18 09:36:21;;;;;;;21.77;8.57;;;5.80;99.90;;;;;;5127469;28;20980;-74
2024/01/18 09:38:47;;;;;;;8.00;5.53;;;5.80;99.90;;;;;;5110407;27;20358;-74
2024/01/18 09:41:15;;;;;;;7.67;4.60;;;5.70;99.90;;;;;;5131185;27;20866;-74
2024/01/18 09:43:42;;;;;;;6.90;4.33;;;5.70;99.90;;;;;;5130996;27;20940;-74
2024/01/18 09:46:09;;;;;;;6.57;5.20;;;5.70;99.90;;;;;;5112404;27;20423;-74
2024/01/18 09:48:36;;;;;;;6.00;5.40;;;5.60;99.90;;;;;;5131159;27;20466;-74
2024/01/18 09:51:05;;;;;;;7.00;5.13;;;5.40;99.90;;;;;;5131117;27;20422;-74
2024/01/18 09:53:32;;;;;;;7.87;5.03;;;5.30;99.90;;;;;;5131645;27;20921;-74
2024/01/18 09:56:05;;;;;;;23.55;5.72;;;5.10;99.90;;;;;;5095406;27;20437;-74
2024/01/18 09:58:31;;;;;;;9.70;4.65;;;4.90;99.90;;;;;;5130888;27;20632;-74
2024/01/18 10:01:03;;;;;;;7.13;4.93;;;4.70;99.90;;;;;;5131031;27;20549;-74
2024/01/18 10:03:28;;;;;;;13.77;5.93;;;4.60;99.90;;;;;;5113315;27;20511;-74
2024/01/18 10:05:54;;;;;;;38.97;6.30;;;4.40;99.90;;;;;;5112883;27;20991;-74
2024/01/18 10:08:20;;;;;;;11.90;5.03;;;4.20;99.90;;;;;;5131197;27;20221;-74
2024/01/18 10:10:45;;;;;;;11.03;4.20;;;4.00;99.90;;;;;;5131457;27;20545;-73
2024/01/18 10:13:13;;;;;;;4.93;4.30;;;3.80;99.90;;;;;;5131421;27;20169;-75
2024/01/18 10:15:39;;;;;;;4.60;3.77;;;3.70;99.90;;;;;;5131352;27;20237;-76
2024/01/18 10:18:06;;;;;;;13.40;7.53;;;3.50;99.90;;;;;;5112742;27;20464;-75
2024/01/18 10:20:32;;;;;;;7.68;5.22;;;3.40;99.90;;;;;;5113318;27;20856;-75
2024/01/18 10:22:59;;;;;;;6.75;4.68;;;3.50;99.90;;;;;;5131619;27;20206;-75
2024/01/18 10:25:28;;;;;;;4.53;3.55;;;3.30;99.90;;;;;;5131434;27;20277;-74
2024/01/18 10:27:55;;;;;;;5.25;3.65;;;3.20;99.90;;;;;;5112579;27;20636;-75
2024/01/18 10:30:22;;;;;;;4.22;3.58;;;3.20;99.90;;;;;;5113029;27;20207;-75
2024/01/18 10:32:48;;;;;;;6.25;2.70;;;3.10;99.90;;;;;;5131068;27;20641;-75
2024/01/18 10:35:24;;;;;;;3.25;2.90;;;3.00;99.90;;;;;;5130998;27;20174;-75
2024/01/18 10:38:00;;;;;;;2.70;2.10;;;2.90;99.90;;;;;;5130979;27;20659;-74
2024/01/18 10:40:27;;;;;;;1.80;1.70;;;2.80;99.90;;;;;;5130521;27;20503;-74
2024/01/18 10:42:52;;;;;;;2.75;2.22;;;2.70;99.90;;;;;;5130466;27;20197;-74
2024/01/18 10:45:18;;;;;;;3.73;1.80;;;2.60;99.90;;;;;;5111865;27;20181;-74
2024/01/18 10:47:44;;;;;;;3.50;2.30;;;2.60;99.90;;;;;;5130104;27;20584;-73
2024/01/18 10:50:10;;;;;;;2.37;1.97;;;2.60;99.90;;;;;;5129773;27;20190;-73
2024/01/18 10:52:37;;;;;;;2.72;2.03;;;2.60;99.90;;;;;;5094251;27;20422;-73
2024/01/18 10:55:07;;;;;;;2.72;2.10;;;2.50;99.90;;;;;;5094392;27;20189;-74
2024/01/18 10:57:32;;;;;;;1.88;1.73;;;2.60;99.90;;;;;;5110870;27;20904;-74
2024/01/18 10:59:59;;;;;;;3.20;2.70;;;2.60;99.90;;;;;;5111062;27;20195;-73
2024/01/18 11:02:25;;;;;;;2.25;1.90;;;2.60;99.90;;;;;;5110646;27;20191;-73
2024/01/18 11:04:54;;;;;;;3.45;3.05;;;2.50;99.90;;;;;;5129500;27;20186;-73
2024/01/18 11:07:20;;;;;;;1.80;1.70;;;2.50;99.90;;;;;;5111273;27;20213;-74
2024/01/18 11:09:46;;;;;;;1.50;1.40;;;2.50;99.90;;;;;;5112732;27;20614;-74
2024/01/18 11:12:13;;;;;;;2.40;1.80;;;2.50;99.90;;;;;;5129181;27;20171;-74
2024/01/18 11:14:40;;;;;;;1.50;1.10;;;2.50;99.90;;;;;;5111065;27;20193;-74
2024/01/18 11:17:26;;;;;;;1.60;1.05;;;2.30;99.90;;;;;;5129355;27;20189;-73
2024/01/18 11:19:54;;;;;;;1.00;0.90;;;2.30;99.90;;;;;;5128869;27;20199;-72
2024/01/18 11:22:28;;;;;;;1.20;0.95;;;2.30;99.90;;;;;;5110794;27;20192;-73
2024/01/18 11:25:01;;;;;;;1.98;0.90;;;2.30;99.90;;;;;;5110885;27;20188;-74
2024/01/18 11:27:26;;;;;;;1.50;0.68;;;2.10;99.90;;;;;;5129313;27;20209;-74
2024/01/18 11:29:53;;;;;;;0.80;0.60;;;2.10;99.90;;;;;;5111250;27;20673;-75
2024/01/18 11:32:19;;;;;;;1.23;0.60;;;2.10;99.90;;;;;;5111494;27;20239;-74
2024/01/18 11:34:47;;;;;;;0.68;0.50;;;2.10;99.90;;;;;;5111289;27;20733;-74
2024/01/18 11:37:18;;;;;;;0.75;0.75;;;2.20;99.90;;;;;;5110899;27;20190;-74
2024/01/18 11:39:49;;;;;;;0.80;0.65;;;2.10;99.90;;;;;;5129660;27;20225;-75
2024/01/18 11:42:26;;;;;;;0.70;0.60;;;2.00;99.90;;;;;;5110709;27;20199;-74
2024/01/18 11:45:00;;;;;;;0.90;0.80;;;2.10;99.90;;;;;;5111033;27;20701;-74
2024/01/18 11:47:31;;;;;;;1.08;0.95;;;2.00;99.90;;;;;;5110283;27;20216;-73
2024/01/18 11:49:57;;;;;;;1.75;1.65;;;2.00;99.90;;;;;;5110540;27;20255;-74
2024/01/18 11:52:25;;;;;;;1.15;1.00;;;2.00;99.90;;;;;;5129324;27;20545;-74
2024/01/18 11:54:54;;;;;;;1.35;0.88;;;2.10;99.90;;;;;;5129258;27;20186;-74
2024/01/18 11:57:20;;;;;;;2.17;2.08;;;2.00;99.90;;;;;;5129056;27;20190;-74
2024/01/18 11:59:46;;;;;;;3.03;2.50;;;2.00;99.90;;;;;;5110559;27;20198;-74
2024/01/18 12:02:12;;;;;;;1.10;0.90;;;2.00;99.90;;;;;;5110070;27;20934;-74
2024/01/18 12:04:38;;;;;;;1.33;1.10;;;2.00;99.90;;;;;;5129051;27;20416;-74
2024/01/18 12:07:06;;;;;;;1.30;1.20;;;2.00;99.90;;;;;;5128974;27;20917;-74
2024/01/18 12:09:32;;;;;;;0.80;0.70;;;2.00;99.90;;;;;;5109900;27;20201;-73
2024/01/18 12:11:59;;;;;;;1.73;1.00;;;2.10;99.90;;;;;;5109998;27;20185;-74
2024/01/18 12:14:25;;;;;;;1.60;1.50;;;2.10;99.90;;;;;;5128569;27;20451;-74
2024/01/18 12:16:52;;;;;;;1.90;1.80;;;2.10;99.90;;;;;;5092903;27;20198;-75
2024/01/18 12:19:33;;;;;;;1.92;1.83;;;2.00;99.90;;;;;;5128102;27;20621;-74
2024/01/18 12:22:05;;;;;;;2.00;1.90;;;2.00;99.90;;;;;;5128514;27;20318;-74
2024/01/18 12:24:31;;;;;;;1.20;1.10;;;1.90;99.90;;;;;;5128412;27;20233;-74
2024/01/18 12:26:56;;;;;;;1.70;1.60;;;1.90;99.90;;;;;;5128459;27;20221;-73
2024/01/18 12:29:22;;;;;;;3.50;2.13;;;1.90;99.90;;;;;;5128441;27;20203;-73
2024/01/18 12:31:49;;;;;;;4.63;2.97;;;1.90;99.90;;;;;;5129126;28;20177;-73
2024/01/18 12:34:17;;;;;;;3.40;3.20;;;1.90;99.90;;;;;;5128443;28;20420;-73
2024/01/18 12:36:43;;;;;;;1.40;1.30;;;2.00;99.90;;;;;;5128270;28;20197;-73
2024/01/18 12:39:09;;;;;;;2.50;2.35;;;1.90;99.90;;;;;;5128449;28;20198;-74
2024/01/18 12:41:35;;;;;;;2.50;1.70;;;1.90;99.90;;;;;;5128763;28;20174;-74
2024/01/18 12:44:08;;;;;;;1.73;1.60;;;1.80;99.90;;;;;;5110172;28;20186;-74
2024/01/18 12:46:35;;;;;;;1.40;1.30;;;1.80;99.90;;;;;;5092859;28;20188;-73
2024/01/18 12:49:01;;;;;;;1.85;1.20;;;1.70;99.90;;;;;;5128063;28;20314;-73
2024/01/18 12:51:28;;;;;;;1.95;1.75;;;1.60;99.90;;;;;;5109808;28;20309;-74